createdAt,value
2023-06-29T00:02:36.016Z,75
2023-06-29T00:06:01.171Z,75
2023-06-29T00:09:26.429Z,76
2023-06-29T00:12:51.637Z,76
2023-06-29T00:16:16.817Z,75
2023-06-29T00:19:42.021Z,76
2023-06-29T00:23:07.164Z,77
2023-06-29T00:26:32.396Z,76
2023-06-29T00:29:57.607Z,76
2023-06-29T00:33:22.840Z,76
2023-06-29T00:36:48.140Z,76
2023-06-29T00:40:13.466Z,76
2023-06-29T00:43:38.685Z,76
2023-06-29T00:47:03.924Z,76
2023-06-29T00:50:29.099Z,76
2023-06-29T00:53:54.356Z,76
2023-06-29T00:57:19.568Z,76
2023-06-29T01:00:44.811Z,76
2023-06-29T01:04:10.024Z,76
2023-06-29T01:07:35.336Z,76
2023-06-29T01:11:00.520Z,76
2023-06-29T01:14:25.711Z,76
2023-06-29T01:17:50.941Z,76
2023-06-29T01:21:16.125Z,76
2023-06-29T01:24:41.327Z,76
2023-06-29T01:28:06.518Z,76
2023-06-29T01:31:31.697Z,76
2023-06-29T01:34:56.926Z,76
2023-06-29T01:38:22.105Z,76
2023-06-29T01:41:47.321Z,76
2023-06-29T01:45:12.539Z,75
2023-06-29T01:48:37.745Z,77
2023-06-29T01:52:02.929Z,77
2023-06-29T01:55:28.157Z,76
2023-06-29T01:58:53.369Z,77
2023-06-29T02:02:18.605Z,77
2023-06-29T02:05:43.930Z,76
2023-06-29T02:09:08.942Z,76
2023-06-29T02:12:34.112Z,76
2023-06-29T02:15:59.375Z,76
2023-06-29T02:19:24.569Z,77
2023-06-29T02:22:49.777Z,77
2023-06-29T02:26:15.005Z,77
2023-06-29T02:29:40.196Z,77
2023-06-29T02:33:05.413Z,77
2023-06-29T02:36:30.658Z,76
2023-06-29T02:39:55.843Z,76
2023-06-29T02:43:21.013Z,76
2023-06-29T02:46:46.240Z,77
2023-06-29T02:50:11.427Z,77
2023-06-29T02:53:36.674Z,78
2023-06-29T02:57:01.886Z,78
2023-06-29T03:00:27.057Z,77
2023-06-29T03:03:52.257Z,77
2023-06-29T03:07:17.481Z,77
2023-06-29T03:10:42.703Z,78
2023-06-29T03:14:07.846Z,77
2023-06-29T03:17:33.094Z,77
2023-06-29T03:20:58.259Z,77
2023-06-29T03:24:23.432Z,76
2023-06-29T03:27:48.711Z,76
2023-06-29T03:31:13.959Z,75
2023-06-29T03:34:39.172Z,77
2023-06-29T03:38:04.377Z,77
2023-06-29T03:41:29.568Z,78
2023-06-29T03:44:54.807Z,78
2023-06-29T03:48:19.985Z,78
2023-06-29T03:51:45.073Z,77
2023-06-29T03:55:10.265Z,76
2023-06-29T03:58:35.451Z,76
2023-06-29T04:02:00.733Z,77
2023-06-29T04:05:25.780Z,77
2023-06-29T04:08:50.971Z,77
2023-06-29T04:12:16.185Z,77
2023-06-29T04:15:41.511Z,78
2023-06-29T04:19:06.634Z,78
2023-06-29T04:22:31.901Z,79
2023-06-29T04:25:57.117Z,79
2023-06-29T04:29:22.340Z,80
2023-06-29T04:32:47.587Z,80
2023-06-29T04:36:12.801Z,80
2023-06-29T04:39:37.987Z,80
2023-06-29T04:43:03.285Z,79
2023-06-29T04:46:29.045Z,79
2023-06-29T04:49:54.258Z,81
2023-06-29T04:53:19.501Z,81
2023-06-29T04:56:44.716Z,78
2023-06-29T05:00:09.974Z,76
2023-06-29T05:03:35.239Z,74
2023-06-29T05:07:00.495Z,70
2023-06-29T05:10:25.771Z,67
2023-06-29T05:13:50.962Z,66
2023-06-29T05:17:16.227Z,65
2023-06-29T05:20:41.484Z,63
2023-06-29T05:24:06.750Z,63
2023-06-29T05:27:32.249Z,64
2023-06-29T05:30:57.232Z,62
2023-06-29T05:34:22.476Z,61
2023-06-29T05:37:47.715Z,61
2023-06-29T05:41:12.983Z,61
2023-06-29T05:44:38.277Z,59
2023-06-29T05:48:03.465Z,60
2023-06-29T05:51:28.741Z,56
2023-06-29T05:54:57.852Z,58
2023-06-29T05:58:23.150Z,60
2023-06-29T06:01:48.472Z,60
2023-06-29T06:05:13.668Z,61
2023-06-29T06:08:38.932Z,60
2023-06-29T06:12:04.173Z,61
2023-06-29T06:15:29.416Z,60
2023-06-29T06:18:54.658Z,56
2023-06-29T06:22:19.893Z,58
2023-06-29T06:25:45.127Z,59
2023-06-29T06:29:10.373Z,60
2023-06-29T06:32:35.648Z,58
2023-06-29T06:36:00.946Z,60
2023-06-29T06:39:26.138Z,60
2023-06-29T06:42:51.375Z,58
2023-06-29T06:46:16.629Z,61
2023-06-29T06:49:41.884Z,60
2023-06-29T06:53:07.130Z,59
2023-06-29T06:56:32.347Z,59
2023-06-29T06:59:57.580Z,60
2023-06-29T07:03:22.841Z,60
2023-06-29T07:06:48.110Z,58
2023-06-29T07:10:13.392Z,59
2023-06-29T07:13:38.644Z,57
2023-06-29T07:17:03.977Z,53
2023-06-29T07:27:19.834Z,53
2023-06-29T07:30:44.977Z,49
2023-06-29T07:34:10.227Z,50
2023-06-29T07:37:35.502Z,49
2023-06-29T07:41:00.719Z,50
2023-06-29T07:44:26.045Z,50
2023-06-29T07:47:51.339Z,50
2023-06-29T07:51:16.597Z,49
2023-06-29T07:54:41.816Z,52
2023-06-29T08:01:32.460Z,49
2023-06-29T08:08:22.983Z,53
2023-06-29T08:11:48.187Z,49
2023-06-29T08:15:13.461Z,52
2023-06-29T08:18:38.811Z,52
2023-06-29T08:22:03.987Z,51
2023-06-29T08:25:30.005Z,49
2023-06-29T08:28:55.241Z,51
2023-06-29T08:32:20.559Z,49
2023-06-29T08:35:45.762Z,50
2023-06-29T08:39:10.976Z,51
2023-06-29T08:42:36.253Z,48
2023-06-29T08:46:01.504Z,52
2023-06-29T08:49:26.704Z,52
2023-06-29T08:52:52.008Z,49
2023-06-29T08:56:17.222Z,49
2023-06-29T08:59:42.457Z,51
2023-06-29T09:03:07.783Z,50
2023-06-29T09:06:32.883Z,50
2023-06-29T09:09:58.174Z,52
2023-06-29T09:13:23.331Z,52
2023-06-29T09:16:48.565Z,50
2023-06-29T09:20:13.809Z,53
2023-06-29T09:23:39.039Z,50
2023-06-29T09:27:04.301Z,51
2023-06-29T09:30:29.546Z,50
2023-06-29T09:33:54.783Z,51
2023-06-29T09:37:20.005Z,50
2023-06-29T09:40:45.271Z,50
2023-06-29T09:44:10.504Z,50
2023-06-29T09:51:00.985Z,50
2023-06-29T09:54:26.114Z,51
2023-06-29T09:57:51.362Z,51
2023-06-29T10:01:16.967Z,53
2023-06-29T10:04:41.891Z,50
2023-06-29T10:08:07.129Z,51
2023-06-29T10:11:32.383Z,54
2023-06-29T10:14:57.618Z,51
2023-06-29T10:18:22.897Z,53
2023-06-29T10:21:48.113Z,52
2023-06-29T10:25:13.367Z,52
2023-06-29T10:28:38.622Z,50
2023-06-29T10:32:03.842Z,52
2023-06-29T10:35:29.106Z,50
2023-06-29T10:38:54.328Z,53
2023-06-29T10:42:19.967Z,50
2023-06-29T10:45:45.187Z,49
2023-06-29T10:49:10.424Z,49
2023-06-29T10:52:35.679Z,52
2023-06-29T10:56:00.880Z,50
2023-06-29T10:59:26.112Z,51
2023-06-29T11:02:51.377Z,50
2023-06-29T11:06:28.844Z,52
2023-06-29T11:09:41.851Z,50
2023-06-29T11:13:07.052Z,49
2023-06-29T11:16:32.474Z,51
2023-06-29T11:19:57.673Z,48
2023-06-29T11:23:22.920Z,47
2023-06-29T11:26:48.218Z,50
2023-06-29T11:30:13.402Z,50
2023-06-29T11:33:38.638Z,46
2023-06-29T11:37:15.310Z,47
2023-06-29T11:40:29.157Z,50
2023-06-29T11:43:54.468Z,48
2023-06-29T11:50:44.928Z,51
2023-06-29T11:54:10.902Z,49
2023-06-29T11:57:36.153Z,47
2023-06-29T12:01:01.531Z,47
2023-06-29T12:04:26.662Z,47
2023-06-29T12:07:52.061Z,51
2023-06-29T12:11:17.180Z,51
2023-06-29T12:14:42.415Z,48
2023-06-29T12:18:08.402Z,49
2023-06-29T12:21:33.000Z,51
2023-06-29T12:24:58.128Z,48
2023-06-29T12:28:23.354Z,49
2023-06-29T12:31:48.719Z,49
2023-06-29T12:35:13.958Z,47
2023-06-29T12:38:39.084Z,50
2023-06-29T12:42:04.332Z,47
2023-06-29T12:45:29.625Z,47
2023-06-29T12:48:54.923Z,48
2023-06-29T12:52:20.198Z,49
2023-06-29T12:55:45.562Z,49
2023-06-29T12:59:10.637Z,50
2023-06-29T13:02:36.523Z,47
2023-06-29T13:06:01.761Z,47
2023-06-29T13:09:27.058Z,49
2023-06-29T13:12:52.399Z,48
2023-06-29T13:16:17.667Z,47
2023-06-29T13:19:42.911Z,45
2023-06-29T13:23:08.207Z,48
2023-06-29T13:26:33.526Z,47
2023-06-29T13:29:58.788Z,48
2023-06-29T13:33:24.091Z,47
2023-06-29T13:36:49.463Z,48
2023-06-29T13:40:15.197Z,46
2023-06-29T13:43:40.553Z,50
2023-06-29T13:47:05.883Z,49
2023-06-29T13:50:40.731Z,50
2023-06-29T13:53:56.376Z,48
2023-06-29T13:57:22.834Z,47
2023-06-29T14:00:46.982Z,49
2023-06-29T14:04:12.327Z,49
2023-06-29T14:07:37.579Z,51
2023-06-29T14:11:02.763Z,52
2023-06-29T14:14:28.071Z,51
2023-06-29T14:17:53.418Z,51
2023-06-29T14:21:18.563Z,51
2023-06-29T14:24:43.828Z,48
2023-06-29T14:28:09.080Z,47
2023-06-29T14:31:34.321Z,52
2023-06-29T14:34:59.559Z,51
2023-06-29T14:38:24.804Z,51
2023-06-29T14:41:50.033Z,49
2023-06-29T14:45:15.312Z,48
2023-06-29T14:48:40.574Z,49
2023-06-29T14:52:05.861Z,49
2023-06-29T14:55:31.119Z,48
2023-06-29T14:58:56.429Z,48
2023-06-29T15:02:21.658Z,49
2023-06-29T15:05:47.169Z,50
2023-06-29T15:09:12.222Z,48
2023-06-29T15:45:54.413Z,51
2023-06-29T15:49:19.650Z,53
2023-06-29T15:52:45.037Z,54
2023-06-29T15:56:10.174Z,52
2023-06-29T15:59:35.493Z,53
2023-06-29T16:03:00.874Z,53
2023-06-29T16:06:25.999Z,52
2023-06-29T16:09:51.299Z,53
2023-06-29T16:13:16.595Z,52
2023-06-29T16:16:41.886Z,54
2023-06-29T16:20:07.144Z,54
2023-06-29T16:23:32.408Z,55
2023-06-29T16:26:57.657Z,55
2023-06-29T16:30:22.916Z,53
2023-06-29T16:33:48.195Z,53
2023-06-29T16:37:13.456Z,54
2023-06-29T16:40:38.703Z,56
2023-06-29T16:44:03.975Z,55
2023-06-29T16:47:29.296Z,54
2023-06-29T16:50:54.511Z,53
2023-06-29T16:54:19.803Z,53
2023-06-29T16:57:45.111Z,56
2023-06-29T17:01:10.342Z,54
2023-06-29T17:04:35.664Z,54
2023-06-29T17:08:00.911Z,54
2023-06-29T17:11:26.197Z,55
2023-06-29T17:14:51.520Z,55
2023-06-29T17:18:16.813Z,57
2023-06-29T17:21:42.045Z,55
2023-06-29T17:25:07.380Z,55
2023-06-29T17:28:32.761Z,55
2023-06-29T17:31:58.085Z,56
2023-06-29T17:35:23.337Z,55
2023-06-29T17:38:48.586Z,55
2023-06-29T17:42:13.825Z,57
2023-06-29T17:45:39.152Z,58
2023-06-29T17:49:04.349Z,59
2023-06-29T17:52:29.585Z,62
2023-06-29T17:55:54.846Z,62
2023-06-29T17:59:20.089Z,62
2023-06-29T18:02:45.441Z,60
2023-06-29T18:06:10.637Z,61
2023-06-29T18:09:35.912Z,60
2023-06-29T18:13:01.182Z,64
2023-06-29T18:16:26.550Z,64
2023-06-29T18:19:51.790Z,65
2023-06-29T18:23:17.034Z,66
2023-06-29T18:26:42.301Z,65
2023-06-29T18:30:07.658Z,67
2023-06-29T18:33:33.042Z,68
2023-06-29T18:36:58.383Z,71
2023-06-29T18:40:23.665Z,72
2023-06-29T18:43:49.001Z,73
2023-06-29T18:47:14.424Z,74
2023-06-29T18:50:39.653Z,74
2023-06-29T18:54:04.936Z,75
2023-06-29T18:57:30.167Z,75
2023-06-29T19:00:55.384Z,68
2023-06-29T19:04:20.738Z,68
2023-06-29T19:07:46.047Z,68
2023-06-29T19:11:11.262Z,67
2023-06-29T19:14:36.478Z,67
2023-06-29T19:18:01.820Z,67
2023-06-29T19:21:35.585Z,68
2023-06-29T19:24:52.332Z,69
2023-06-29T19:28:17.594Z,68
2023-06-29T19:31:44.819Z,69
2023-06-29T19:35:08.051Z,72
2023-06-29T19:38:33.303Z,71
2023-06-29T19:41:58.542Z,69
2023-06-29T19:45:23.854Z,69
2023-06-29T19:48:49.204Z,68
2023-06-29T19:52:14.515Z,67
2023-06-29T19:55:39.768Z,67
2023-06-29T19:59:05.060Z,67
2023-06-29T20:02:30.451Z,66
2023-06-29T20:05:55.677Z,67
2023-06-29T20:09:20.924Z,67
2023-06-29T20:12:46.188Z,67
2023-06-29T20:16:11.436Z,67
2023-06-29T20:19:36.689Z,67
2023-06-29T20:23:01.884Z,69
2023-06-29T20:26:27.104Z,68
2023-06-29T20:29:53.574Z,68
2023-06-29T20:33:17.555Z,68
2023-06-29T20:36:42.809Z,68
2023-06-29T20:40:08.034Z,68
2023-06-29T20:43:33.244Z,68
2023-06-29T20:46:58.483Z,68
2023-06-29T20:50:23.734Z,68
2023-06-29T20:53:48.973Z,69
2023-06-29T20:57:14.171Z,68
2023-06-29T21:00:39.430Z,68
2023-06-29T21:04:04.840Z,69
2023-06-29T21:07:30.024Z,68
2023-06-29T21:10:55.187Z,69
2023-06-29T21:14:20.381Z,69
2023-06-29T21:17:45.721Z,69
2023-06-29T21:21:10.886Z,69
2023-06-29T21:24:36.092Z,69
2023-06-29T21:28:01.370Z,69
2023-06-29T21:31:26.609Z,70
2023-06-29T21:34:51.807Z,70
2023-06-29T21:38:17.038Z,70
2023-06-29T21:41:42.285Z,70
2023-06-29T21:45:07.534Z,70
2023-06-29T21:48:32.753Z,70
2023-06-29T21:51:57.959Z,70
2023-06-29T21:55:23.205Z,70
2023-06-29T21:58:48.461Z,71
2023-06-29T22:02:13.759Z,71
2023-06-29T22:05:38.931Z,71
2023-06-29T22:09:04.414Z,71
2023-06-29T22:12:29.452Z,71
2023-06-29T22:15:54.669Z,70
2023-06-29T22:19:19.931Z,71
2023-06-29T22:22:45.142Z,71
2023-06-29T22:26:10.363Z,71
2023-06-29T22:29:35.593Z,70
2023-06-29T22:33:00.862Z,71
2023-06-29T22:36:26.129Z,71
2023-06-29T22:39:51.254Z,71
2023-06-29T22:43:16.485Z,71
2023-06-29T22:46:41.763Z,71
2023-06-29T22:50:06.937Z,71
2023-06-29T22:53:32.197Z,71
2023-06-29T22:56:57.419Z,71
2023-06-29T23:00:22.664Z,71
2023-06-29T23:03:47.997Z,71
2023-06-29T23:07:13.202Z,71
2023-06-29T23:10:38.432Z,71
2023-06-29T23:14:03.645Z,72
2023-06-29T23:17:28.930Z,72
2023-06-29T23:20:54.108Z,72
2023-06-29T23:24:19.359Z,73
2023-06-29T23:27:44.805Z,73
2023-06-29T23:31:09.889Z,73
2023-06-29T23:34:35.080Z,73
2023-06-29T23:38:00.345Z,73
2023-06-29T23:41:25.598Z,73
2023-06-29T23:44:50.839Z,74
2023-06-29T23:48:16.076Z,74
2023-06-29T23:51:41.360Z,74
2023-06-29T23:55:06.608Z,74
2023-06-29T23:58:31.835Z,74
